createdAt,value
2019-01-21T00:00:03.208Z,84.28
2019-01-21T00:01:03.198Z,85.55
2019-01-21T00:02:03.224Z,84.39
2019-01-21T00:03:03.176Z,83.86
2019-01-21T00:04:03.184Z,83.54
2019-01-21T00:05:03.156Z,82.87
2019-01-21T00:06:03.146Z,83.44
2019-01-21T00:07:03.135Z,83.01
2019-01-21T00:08:03.147Z,83.54
2019-01-21T00:09:03.112Z,81.68
2019-01-21T00:10:03.123Z,81.50
2019-01-21T00:11:03.092Z,81.54
2019-01-21T00:12:03.082Z,84.04
2019-01-21T00:13:03.098Z,83.44
2019-01-21T00:14:03.061Z,84.25
2019-01-21T00:15:03.051Z,85.77
2019-01-21T00:16:03.054Z,84.29
2019-01-21T00:17:03.029Z,85.35
2019-01-21T00:18:03.043Z,86.30
2019-01-21T00:19:03.008Z,85.59
2019-01-21T00:20:03.002Z,84.78
2019-01-21T00:21:02.988Z,85.48
2019-01-21T00:22:02.996Z,84.00
2019-01-21T00:23:03.004Z,83.05
2019-01-21T00:24:02.957Z,84.32
2019-01-21T00:25:02.945Z,84.22
2019-01-21T00:26:02.936Z,83.47
2019-01-21T00:27:02.925Z,83.79
2019-01-21T00:28:02.946Z,83.69
2019-01-21T00:29:02.907Z,83.79
2019-01-21T00:30:02.895Z,84.60
2019-01-21T00:31:02.882Z,84.70
2019-01-21T00:32:02.874Z,83.65
2019-01-21T00:33:02.884Z,83.75
2019-01-21T00:34:02.869Z,82.17
2019-01-21T00:35:02.840Z,82.63
2019-01-21T00:36:02.836Z,80.76
2019-01-21T00:37:03.521Z,82.17
2019-01-21T00:38:02.838Z,80.69
2019-01-21T00:39:02.798Z,80.24
2019-01-21T00:40:02.800Z,82.14
2019-01-21T00:41:02.776Z,84.16
2019-01-21T00:42:02.768Z,83.66
2019-01-21T00:43:02.779Z,83.70
2019-01-21T00:44:02.745Z,82.53
2019-01-21T00:45:02.736Z,84.97
2019-01-21T00:46:02.784Z,85.93
2019-01-21T00:47:02.716Z,85.82
2019-01-21T00:48:02.728Z,86.63
2019-01-21T00:49:02.694Z,86.94
2019-01-21T00:50:02.682Z,86.35
2019-01-21T00:51:02.673Z,86.63
2019-01-21T00:52:02.693Z,86.73
2019-01-21T00:53:02.675Z,88.18
2019-01-21T00:54:02.640Z,87.93
2019-01-21T00:55:02.637Z,86.76
2019-01-21T00:56:02.618Z,87.88
2019-01-21T00:57:02.615Z,87.57
2019-01-21T00:58:02.681Z,88.06
2019-01-21T00:59:02.587Z,87.53
2019-01-21T01:00:02.579Z,86.85
2019-01-21T01:01:02.566Z,85.44
2019-01-21T01:02:02.559Z,84.60
2019-01-21T01:03:02.543Z,84.07
2019-01-21T01:04:02.584Z,83.65
2019-01-21T01:05:02.527Z,81.89
2019-01-21T01:06:02.515Z,82.14
2019-01-21T01:07:02.504Z,82.24
2019-01-21T01:08:02.494Z,83.40
2019-01-21T01:09:02.507Z,82.92
2019-01-21T01:10:02.514Z,83.80
2019-01-21T01:11:02.464Z,83.84
2019-01-21T01:12:02.451Z,83.20
2019-01-21T01:13:02.441Z,85.64
2019-01-21T01:14:02.464Z,86.06
2019-01-21T01:15:02.421Z,86.80
2019-01-21T01:16:02.423Z,88.13
2019-01-21T01:17:02.397Z,88.20
2019-01-21T01:18:02.387Z,87.42
2019-01-21T01:19:02.400Z,85.69
2019-01-21T01:20:02.366Z,85.27
2019-01-21T01:21:02.354Z,83.72
2019-01-21T01:22:02.381Z,82.56
2019-01-21T01:23:02.335Z,83.55
2019-01-21T01:24:02.350Z,83.27
2019-01-21T01:25:02.312Z,84.96
2019-01-21T01:26:02.301Z,85.60
2019-01-21T01:27:02.292Z,85.56
2019-01-21T01:28:02.319Z,85.46
2019-01-21T01:29:02.297Z,85.66
2019-01-21T01:30:02.269Z,85.46
2019-01-21T01:31:02.252Z,84.71
2019-01-21T01:32:02.245Z,83.02
2019-01-21T01:33:02.235Z,84.19
2019-01-21T01:34:02.259Z,83.65
2019-01-21T01:35:02.208Z,84.29
2019-01-21T01:36:02.198Z,84.19
2019-01-21T01:37:02.189Z,84.82
2019-01-21T01:38:02.174Z,85.98
2019-01-21T01:39:02.191Z,85.52
2019-01-21T01:40:02.189Z,85.63
2019-01-21T01:41:02.143Z,85.63
2019-01-21T01:42:02.133Z,83.72
2019-01-21T01:43:02.124Z,84.11
2019-01-21T01:44:02.139Z,82.56
2019-01-21T01:45:02.102Z,82.88
2019-01-21T01:46:02.110Z,82.28
2019-01-21T01:47:02.081Z,82.21
2019-01-21T01:48:02.074Z,85.60
2019-01-21T01:49:02.088Z,85.56
2019-01-21T01:50:02.050Z,85.73
2019-01-21T01:51:02.039Z,85.31
2019-01-21T01:52:02.042Z,84.22
2019-01-21T01:53:02.027Z,83.47
2019-01-21T01:54:02.013Z,83.58
2019-01-21T01:55:02.024Z,82.31
2019-01-21T01:56:01.987Z,83.58
2019-01-21T01:57:01.975Z,83.65
2019-01-21T01:58:01.978Z,82.98
2019-01-21T01:59:01.958Z,82.28
2019-01-21T02:00:01.967Z,81.32
2019-01-21T02:01:01.933Z,81.46
2019-01-21T02:02:01.923Z,81.40
2019-01-21T02:03:01.970Z,81.61
2019-01-21T02:04:01.943Z,82.35
2019-01-21T02:05:01.917Z,83.12
2019-01-21T02:06:01.880Z,84.29
2019-01-21T02:07:01.878Z,84.19
2019-01-21T02:08:01.861Z,83.76
2019-01-21T02:09:01.851Z,84.19
2019-01-21T02:10:01.907Z,84.29
2019-01-21T02:11:01.828Z,84.82
2019-01-21T02:12:01.816Z,83.87
2019-01-21T02:13:01.805Z,85.56
2019-01-21T02:14:01.798Z,85.73
2019-01-21T02:15:01.859Z,85.38
2019-01-21T02:16:01.775Z,84.28
2019-01-21T02:17:01.762Z,82.80
2019-01-21T02:18:01.755Z,82.48
2019-01-21T02:19:01.742Z,82.03
2019-01-21T02:20:01.759Z,82.45
2019-01-21T02:21:01.738Z,81.12
2019-01-21T02:22:01.713Z,81.22
2019-01-21T02:23:01.701Z,81.43
2019-01-21T02:24:01.689Z,80.27
2019-01-21T02:25:01.705Z,80.52
2019-01-21T02:26:01.669Z,82.31
2019-01-21T02:27:01.695Z,81.68
2019-01-21T02:28:01.658Z,80.98
2019-01-21T02:29:01.637Z,81.08
2019-01-21T02:30:01.659Z,80.87
2019-01-21T02:31:01.619Z,80.27
2019-01-21T02:32:01.614Z,82.49
2019-01-21T02:33:01.598Z,82.28
2019-01-21T02:34:01.622Z,82.70
2019-01-21T02:35:01.604Z,82.70
2019-01-21T02:36:01.566Z,82.07
2019-01-21T02:37:01.564Z,80.87
2019-01-21T02:38:01.540Z,81.40
2019-01-21T02:39:01.531Z,81.96
2019-01-21T02:40:01.537Z,81.43
2019-01-21T02:41:01.538Z,81.43
2019-01-21T02:42:01.528Z,82.42
2019-01-21T02:43:01.492Z,82.21
2019-01-21T02:44:01.479Z,82.64
2019-01-21T02:45:01.469Z,82.42
2019-01-21T02:46:01.502Z,82.04
2019-01-21T02:47:01.446Z,82.67
2019-01-21T02:48:01.438Z,82.99
2019-01-21T02:49:01.426Z,84.79
2019-01-21T02:50:01.418Z,82.46
2019-01-21T02:51:01.436Z,82.14
2019-01-21T02:52:01.418Z,83.52
2019-01-21T02:53:01.383Z,84.47
2019-01-21T02:54:01.381Z,82.04
2019-01-21T02:55:01.364Z,82.67
2019-01-21T02:56:01.364Z,83.59
2019-01-21T02:57:01.375Z,82.53
2019-01-21T02:58:01.358Z,83.02
2019-01-21T02:59:01.320Z,82.60
2019-01-21T03:00:01.312Z,82.39
2019-01-21T03:01:01.301Z,82.39
2019-01-21T03:02:01.313Z,82.32
2019-01-21T03:03:01.278Z,82.04
2019-01-21T03:04:01.287Z,80.06
2019-01-21T03:05:01.257Z,82.39
2019-01-21T03:06:01.248Z,83.13
2019-01-21T03:07:01.274Z,83.98
2019-01-21T03:08:01.224Z,81.48
2019-01-21T03:09:01.214Z,85.99
2019-01-21T03:10:01.246Z,84.93
2019-01-21T03:11:01.193Z,83.84
2019-01-21T03:12:01.213Z,83.73
2019-01-21T03:13:01.172Z,82.35
2019-01-21T03:14:01.164Z,84.12
2019-01-21T03:15:01.152Z,85.60
2019-01-21T03:16:01.152Z,85.14
2019-01-21T03:17:01.160Z,83.97
2019-01-21T03:18:07.916Z,83.09
2019-01-21T03:19:02.109Z,82.14
2019-01-21T03:20:01.125Z,81.65
2019-01-21T03:21:01.088Z,82.28
2019-01-21T03:22:01.091Z,83.62
2019-01-21T03:23:01.091Z,83.72
2019-01-21T03:24:01.056Z,82.03
2019-01-21T03:25:01.046Z,80.87
2019-01-21T03:26:01.041Z,81.29
2019-01-21T03:27:01.025Z,81.85
2019-01-21T03:28:01.071Z,81.33
2019-01-21T03:29:01.014Z,81.23
2019-01-21T03:30:00.996Z,80.94
2019-01-21T03:31:00.994Z,81.47
2019-01-21T03:32:00.984Z,82.42
2019-01-21T03:33:00.992Z,85.14
2019-01-21T03:34:00.989Z,83.06
2019-01-21T03:35:01.130Z,82.39
2019-01-21T03:36:00.959Z,84.19
2019-01-21T03:37:00.925Z,84.50
2019-01-21T03:38:00.936Z,84.25
2019-01-21T03:39:00.907Z,83.51
2019-01-21T03:40:00.893Z,82.14
2019-01-21T03:41:00.890Z,82.24
2019-01-21T03:42:00.875Z,82.60
2019-01-21T03:43:00.899Z,83.12
2019-01-21T03:44:00.845Z,82.60
2019-01-21T03:45:00.845Z,80.94
2019-01-21T03:46:00.825Z,80.98
2019-01-21T03:47:00.817Z,81.44
2019-01-21T03:48:00.842Z,82.78
2019-01-21T03:49:00.819Z,82.78
2019-01-21T03:50:00.784Z,83.53
2019-01-21T03:51:00.775Z,84.38
2019-01-21T03:52:00.762Z,84.63
2019-01-21T03:53:00.750Z,85.86
2019-01-21T03:54:00.782Z,85.75
2019-01-21T03:55:00.730Z,86.14
2019-01-21T03:56:00.721Z,84.34
2019-01-21T03:57:00.711Z,86.63
2019-01-21T03:58:00.698Z,85.68
2019-01-21T03:59:00.711Z,85.57
2019-01-21T04:00:00.693Z,84.79
2019-01-21T04:01:00.668Z,85.96
2019-01-21T04:02:00.662Z,85.66
2019-01-21T04:03:00.648Z,85.03
2019-01-21T04:04:00.666Z,83.55
2019-01-21T04:05:00.625Z,84.29
2019-01-21T04:06:00.613Z,82.77
2019-01-21T04:07:00.615Z,82.88
2019-01-21T04:08:00.594Z,82.56
2019-01-21T04:09:00.610Z,81.82
2019-01-21T04:10:00.580Z,80.87
2019-01-21T04:11:00.566Z,80.16
2019-01-21T04:12:00.555Z,82.39
2019-01-21T04:13:00.557Z,82.53
2019-01-21T04:14:00.531Z,81.37
2019-01-21T04:15:00.543Z,80.45
2019-01-21T04:16:00.506Z,79.53
2019-01-21T04:17:00.497Z,81.23
2019-01-21T04:18:00.486Z,82.96
2019-01-21T04:19:00.490Z,82.64
2019-01-21T04:20:00.499Z,83.21
2019-01-21T04:21:00.453Z,84.55
2019-01-21T04:22:00.457Z,85.93
2019-01-21T04:23:00.434Z,84.34
2019-01-21T04:24:00.424Z,85.89
2019-01-21T04:25:00.461Z,85.42
2019-01-21T04:26:00.401Z,85.42
2019-01-21T04:27:00.394Z,83.59
2019-01-21T04:28:00.381Z,80.98
2019-01-21T04:29:00.373Z,83.20
2019-01-21T04:30:00.390Z,83.80
2019-01-21T04:31:00.409Z,84.44
2019-01-21T04:32:00.340Z,82.81
2019-01-21T04:33:00.327Z,82.49
2019-01-21T04:34:00.318Z,82.49
2019-01-21T04:35:00.351Z,82.35
2019-01-21T04:36:00.310Z,81.85
2019-01-21T04:37:00.307Z,81.75
2019-01-21T04:38:00.277Z,81.54
2019-01-21T04:39:00.267Z,81.54
2019-01-21T04:40:00.297Z,80.91
2019-01-21T04:41:00.244Z,81.05
2019-01-21T04:42:00.237Z,80.52
2019-01-21T04:43:00.285Z,81.58
2019-01-21T04:44:00.213Z,81.19
2019-01-21T04:45:00.386Z,81.97
2019-01-21T04:46:00.218Z,82.39
2019-01-21T04:47:00.182Z,83.98
2019-01-21T04:48:00.171Z,83.87
2019-01-21T04:49:00.189Z,82.92
2019-01-21T04:50:00.229Z,83.98
2019-01-21T04:51:00.166Z,83.77
2019-01-21T04:52:00.136Z,84.69
2019-01-21T04:53:00.122Z,84.64
2019-01-21T04:54:00.115Z,82.89
2019-01-21T04:55:00.336Z,82.46
2019-01-21T04:56:00.113Z,82.81
2019-01-21T04:57:00.080Z,82.81
2019-01-21T04:58:00.076Z,83.73
2019-01-21T04:59:00.059Z,82.50
2019-01-21T05:00:00.047Z,83.77
2019-01-21T05:01:00.101Z,83.84
2019-01-21T05:02:00.027Z,81.76
2019-01-21T05:03:00.017Z,81.54
2019-01-21T05:04:00.005Z,81.86
2019-01-21T05:04:59.994Z,82.60
2019-01-21T05:06:00.017Z,82.21
2019-01-21T05:07:00.011Z,82.53
2019-01-21T05:07:59.964Z,82.04
2019-01-21T05:08:59.955Z,84.55
2019-01-21T05:09:59.943Z,85.99
2019-01-21T05:10:59.933Z,85.53
2019-01-21T05:11:59.945Z,82.99
2019-01-21T05:12:59.956Z,83.91
2019-01-21T05:13:59.900Z,82.95
2019-01-21T05:14:59.902Z,82.42
2019-01-21T05:15:59.879Z,81.47
2019-01-21T05:16:59.903Z,81.68
2019-01-21T05:17:59.859Z,81.58
2019-01-21T05:18:59.896Z,81.62
2019-01-21T05:19:59.837Z,82.21
2019-01-21T05:20:59.827Z,81.72
2019-01-21T05:21:59.872Z,81.51
2019-01-21T05:22:59.830Z,82.04
2019-01-21T05:23:59.800Z,80.98
2019-01-21T05:24:59.805Z,80.06
2019-01-21T05:25:59.774Z,80.17
2019-01-21T05:26:59.766Z,80.52
2019-01-21T05:27:59.780Z,81.69
2019-01-21T05:28:59.756Z,82.15
2019-01-21T05:29:59.747Z,82.04
2019-01-21T05:30:59.721Z,80.38
2019-01-21T05:31:59.711Z,83.46
2019-01-21T05:32:59.723Z,84.20
2019-01-21T05:33:59.692Z,83.95
2019-01-21T05:34:59.680Z,83.84
2019-01-21T05:35:59.708Z,84.48
2019-01-21T05:36:59.658Z,84.34
2019-01-21T05:37:59.683Z,82.71
2019-01-21T05:38:59.643Z,81.16
2019-01-21T05:39:59.628Z,81.26
2019-01-21T05:40:59.626Z,81.93
2019-01-21T05:41:59.624Z,81.73
2019-01-21T05:42:59.597Z,82.08
2019-01-21T05:43:59.612Z,81.37
2019-01-21T05:44:59.578Z,82.37
2019-01-21T05:45:59.577Z,84.03
2019-01-21T05:46:59.554Z,84.45
2019-01-21T05:47:59.567Z,84.17
2019-01-21T05:48:59.561Z,84.28
2019-01-21T05:49:59.524Z,85.59
2019-01-21T05:50:59.513Z,87.46
2019-01-21T05:51:59.505Z,86.57
2019-01-21T05:52:59.498Z,86.32
2019-01-21T05:53:59.529Z,84.94
2019-01-21T05:54:59.476Z,83.88
2019-01-21T05:55:59.462Z,83.78
2019-01-21T05:56:59.453Z,82.61
2019-01-21T05:57:59.439Z,82.61
2019-01-21T05:58:59.466Z,83.14
2019-01-21T05:59:59.455Z,82.82
2019-01-21T06:00:59.410Z,82.71
2019-01-21T06:01:59.401Z,82.18
2019-01-21T06:02:59.389Z,81.16
2019-01-21T06:03:59.381Z,80.46
2019-01-21T06:04:59.392Z,81.13
2019-01-21T06:05:59.395Z,83.14
2019-01-21T06:06:59.349Z,82.44
2019-01-21T06:07:59.348Z,84.25
2019-01-21T06:08:59.328Z,83.92
2019-01-21T06:09:59.340Z,84.67
2019-01-21T06:10:59.310Z,82.54
2019-01-21T06:11:59.347Z,82.33
2019-01-21T06:12:59.285Z,83.39
2019-01-21T06:13:59.276Z,84.67
2019-01-21T06:14:59.306Z,84.10
2019-01-21T06:15:59.255Z,84.74
2019-01-21T06:16:59.247Z,84.00
2019-01-21T06:17:59.258Z,84.03
2019-01-21T06:18:59.225Z,84.74
2019-01-21T06:19:59.215Z,84.20
2019-01-21T06:20:59.229Z,83.39
2019-01-21T06:21:59.194Z,81.41
2019-01-21T06:22:59.187Z,81.87
2019-01-21T06:23:59.193Z,84.64
2019-01-21T06:24:59.165Z,84.75
2019-01-21T06:25:59.177Z,86.44
2019-01-21T06:26:59.141Z,87.15
2019-01-21T06:27:59.131Z,86.37
2019-01-21T06:28:59.121Z,85.03
2019-01-21T06:29:59.141Z,85.98
2019-01-21T06:30:59.131Z,86.47
2019-01-21T06:31:59.101Z,86.26
2019-01-21T06:32:59.079Z,86.01
2019-01-21T06:33:59.071Z,86.01
2019-01-21T06:34:59.061Z,85.91
2019-01-21T06:35:59.129Z,85.87
2019-01-21T06:36:59.038Z,85.87
2019-01-21T06:37:59.027Z,86.08
2019-01-21T06:38:59.026Z,85.83
2019-01-21T06:39:59.006Z,85.94
2019-01-21T06:40:59.030Z,84.56
2019-01-21T06:41:59.040Z,83.92
2019-01-21T06:42:58.975Z,83.95
2019-01-21T06:43:58.965Z,83.43
2019-01-21T06:44:58.961Z,83.95
2019-01-21T06:45:58.974Z,84.66
2019-01-21T06:46:58.934Z,86.15
2019-01-21T06:47:58.976Z,85.79
2019-01-21T06:49:04.666Z,85.47
2019-01-21T06:49:59.901Z,83.14
2019-01-21T06:50:58.910Z,82.54
2019-01-21T06:51:58.915Z,83.50
2019-01-21T06:52:58.879Z,83.92
2019-01-21T06:53:58.865Z,85.94
2019-01-21T06:54:58.867Z,86.64
2019-01-21T06:55:58.844Z,86.32
2019-01-21T06:56:58.859Z,86.54
2019-01-21T06:57:58.820Z,87.34
2019-01-21T06:58:58.809Z,86.54
2019-01-21T06:59:58.803Z,86.00
2019-01-21T07:00:58.801Z,83.99
2019-01-21T07:01:58.806Z,84.03
2019-01-21T07:02:58.771Z,86.54
2019-01-21T07:03:58.759Z,86.15
2019-01-21T07:04:58.747Z,85.94
2019-01-21T07:05:58.737Z,87.21
2019-01-21T07:06:58.772Z,88.12
2019-01-21T07:07:58.719Z,86.74
2019-01-21T07:08:58.707Z,86.39
2019-01-21T07:09:58.697Z,86.49
2019-01-21T07:10:58.733Z,88.19
2019-01-21T07:11:58.919Z,87.34
2019-01-21T07:12:58.701Z,84.48
2019-01-21T07:13:58.882Z,83.99
2019-01-21T07:14:58.655Z,84.20
2019-01-21T07:15:58.636Z,84.63
2019-01-21T07:16:58.818Z,84.52
2019-01-21T07:17:58.671Z,84.20
2019-01-21T07:18:58.610Z,84.84
2019-01-21T07:19:58.608Z,84.09
2019-01-21T07:20:58.677Z,84.41
2019-01-21T07:21:58.619Z,83.78
2019-01-21T07:22:58.665Z,84.41
2019-01-21T07:23:58.563Z,83.88
2019-01-21T07:24:58.545Z,85.16
2019-01-21T07:25:58.579Z,86.00
2019-01-21T07:26:58.565Z,85.54
2019-01-21T07:27:58.541Z,85.01
2019-01-21T07:28:58.503Z,84.38
2019-01-21T07:29:58.534Z,83.10
2019-01-21T07:30:58.506Z,82.61
2019-01-21T07:31:58.519Z,83.25
2019-01-21T07:32:58.602Z,83.99
2019-01-21T07:33:58.451Z,84.52
2019-01-21T07:34:58.439Z,84.59
2019-01-21T07:35:58.434Z,83.99
2019-01-21T07:36:58.428Z,82.65
2019-01-21T07:37:58.419Z,82.97
2019-01-21T07:38:58.417Z,84.03
2019-01-21T07:39:58.434Z,83.95
2019-01-21T07:40:58.379Z,84.88
2019-01-21T07:41:58.368Z,85.05
2019-01-21T07:42:58.364Z,85.51
2019-01-21T07:43:58.369Z,85.36
2019-01-21T07:44:58.375Z,86.21
2019-01-21T07:45:58.340Z,87.13
2019-01-21T07:46:58.315Z,86.84
2019-01-21T07:47:58.305Z,87.26
2019-01-21T07:48:58.318Z,86.48
2019-01-21T07:49:58.281Z,85.39
2019-01-21T07:50:58.270Z,83.65
2019-01-21T07:51:58.294Z,82.32
2019-01-21T07:52:58.251Z,80.94
2019-01-21T07:53:58.432Z,80.24
2019-01-21T07:54:58.241Z,80.66
2019-01-21T07:55:58.220Z,82.14
2019-01-21T07:56:58.218Z,82.57
2019-01-21T07:57:58.218Z,81.23
2019-01-21T07:58:58.254Z,83.41
2019-01-21T07:59:58.212Z,81.62
2019-01-21T08:00:58.166Z,80.98
2019-01-21T08:01:58.160Z,81.34
2019-01-21T08:02:58.157Z,82.53
2019-01-21T08:03:58.169Z,83.69
2019-01-21T08:04:58.310Z,82.64
2019-01-21T08:05:58.136Z,81.75
2019-01-21T08:06:58.739Z,81.68
2019-01-21T08:07:58.095Z,81.79
2019-01-21T08:08:58.084Z,81.82
2019-01-21T08:09:58.157Z,82.74
2019-01-21T08:10:58.122Z,82.99
2019-01-21T08:11:58.052Z,83.80
2019-01-21T08:12:58.222Z,83.80
2019-01-21T08:13:58.035Z,83.69
2019-01-21T08:14:58.153Z,84.08
2019-01-21T08:15:58.007Z,84.78
2019-01-21T08:16:58.251Z,84.78
2019-01-21T08:17:57.985Z,82.95
2019-01-21T08:18:58.827Z,82.48
2019-01-21T08:19:57.964Z,81.74
2019-01-21T08:20:58.110Z,82.24
2019-01-21T08:21:57.942Z,82.20
2019-01-21T08:22:57.977Z,80.41
2019-01-21T08:23:57.982Z,79.46
2019-01-21T08:24:57.941Z,79.67
2019-01-21T08:25:57.924Z,78.61
2019-01-21T08:26:57.906Z,79.99
2019-01-21T08:27:57.880Z,80.05
2019-01-21T08:28:57.892Z,79.63
2019-01-21T08:29:57.861Z,80.58
2019-01-21T08:30:57.868Z,81.18
2019-01-21T08:31:57.835Z,80.12
2019-01-21T08:32:57.828Z,80.23
2019-01-21T08:33:57.814Z,80.08
2019-01-21T08:34:57.811Z,79.88
2019-01-21T08:35:57.815Z,80.36
2019-01-21T08:36:57.781Z,80.65
2019-01-21T08:37:57.782Z,79.70
2019-01-21T08:38:57.757Z,77.80
2019-01-21T08:39:57.748Z,76.61
2019-01-21T08:40:57.887Z,78.02
2019-01-21T08:41:57.726Z,78.61
2019-01-21T08:42:57.714Z,77.45
2019-01-21T08:43:57.718Z,76.61
2019-01-21T08:44:57.695Z,75.45
2019-01-21T08:45:57.732Z,75.42
2019-01-21T08:46:57.686Z,76.15
2019-01-21T08:47:57.662Z,77.73
2019-01-21T08:48:57.650Z,79.42
2019-01-21T08:49:57.640Z,79.49
2019-01-21T08:50:57.807Z,77.17
2019-01-21T08:51:57.619Z,77.87
2019-01-21T08:52:57.926Z,76.82
2019-01-21T08:53:57.598Z,77.76
2019-01-21T08:54:57.587Z,79.91
2019-01-21T08:55:57.589Z,75.07
2019-01-21T08:56:57.586Z,76.82
2019-01-21T08:57:57.583Z,74.19
2019-01-21T08:58:57.569Z,73.81
2019-01-21T08:59:57.534Z,74.54
2019-01-21T09:00:57.520Z,74.72
2019-01-21T09:01:57.531Z,76.37
2019-01-21T09:02:57.504Z,75.10
2019-01-21T09:03:57.489Z,74.16
2019-01-21T09:04:57.481Z,75.14
2019-01-21T09:05:57.467Z,73.64
2019-01-21T09:07:00.785Z,73.64
2019-01-21T09:07:57.444Z,73.08
2019-01-21T09:08:57.433Z,72.66
2019-01-21T09:09:57.422Z,73.26
2019-01-21T09:10:57.424Z,71.69
2019-01-21T09:11:57.424Z,70.50
2019-01-21T09:12:57.388Z,70.22
2019-01-21T09:13:57.378Z,70.08
2019-01-21T09:14:57.367Z,69.87
2019-01-21T09:15:57.364Z,69.67
2019-01-21T09:16:57.391Z,69.56
2019-01-21T09:17:57.334Z,69.98
2019-01-21T09:18:57.325Z,70.40
2019-01-21T09:19:57.314Z,69.87
2019-01-21T09:20:57.300Z,69.67
2019-01-21T09:21:57.289Z,70.32
2019-01-21T09:22:57.330Z,69.87
2019-01-21T09:23:57.267Z,70.08
2019-01-21T09:24:57.255Z,70.22
2019-01-21T09:25:57.245Z,70.71
2019-01-21T09:26:57.236Z,68.15
2019-01-21T09:27:57.246Z,68.99
2019-01-21T09:28:57.220Z,69.62
2019-01-21T09:29:57.215Z,71.75
2019-01-21T09:30:57.197Z,70.78
2019-01-21T09:31:57.184Z,71.09
2019-01-21T09:32:57.192Z,72.03
2019-01-21T09:33:57.181Z,71.51
2019-01-21T09:34:57.151Z,70.64
2019-01-21T09:35:57.139Z,69.87
2019-01-21T09:36:57.134Z,70.26
2019-01-21T09:37:57.210Z,68.97
2019-01-21T09:38:57.153Z,68.24
2019-01-21T09:39:57.117Z,69.46
2019-01-21T09:40:57.087Z,66.93
2019-01-21T09:41:57.086Z,68.35
2019-01-21T09:42:57.082Z,66.89
2019-01-21T09:43:57.080Z,66.44
2019-01-21T09:44:57.038Z,65.19
2019-01-21T09:45:57.031Z,64.56
2019-01-21T09:46:57.031Z,65.40
2019-01-21T09:47:57.037Z,65.50
2019-01-21T09:48:57.028Z,64.32
2019-01-21T09:49:56.986Z,64.50
2019-01-21T09:50:57.009Z,64.61
2019-01-21T09:51:56.965Z,64.19
2019-01-21T09:52:56.959Z,63.67
2019-01-21T09:53:56.942Z,63.18
2019-01-21T09:54:56.976Z,64.61
2019-01-21T09:55:56.960Z,64.43
2019-01-21T09:56:56.975Z,63.67
2019-01-21T09:57:56.903Z,63.54
2019-01-21T09:58:56.888Z,64.16
2019-01-21T09:59:56.911Z,63.12
2019-01-21T10:00:56.876Z,63.71
2019-01-21T10:01:56.853Z,62.81
2019-01-21T10:02:56.843Z,62.70
2019-01-21T10:03:56.846Z,63.35
2019-01-21T10:04:56.846Z,63.85
2019-01-21T10:05:56.852Z,63.54
2019-01-21T10:06:56.798Z,63.67
2019-01-21T10:07:56.801Z,62.94
2019-01-21T10:08:56.777Z,63.25
2019-01-21T10:09:56.803Z,61.82
2019-01-21T10:11:03.190Z,63.70
2019-01-21T10:11:57.741Z,63.98
2019-01-21T10:12:56.742Z,63.49
2019-01-21T10:13:56.736Z,64.09
2019-01-21T10:14:56.709Z,62.94
2019-01-21T10:15:56.748Z,61.79
2019-01-21T10:16:56.713Z,62.10
2019-01-21T10:17:56.694Z,63.04
2019-01-21T10:18:56.681Z,63.15
2019-01-21T10:19:56.675Z,64.19
2019-01-21T10:20:56.670Z,64.03
2019-01-21T10:21:56.634Z,64.18
2019-01-21T10:22:56.663Z,59.59
2019-01-21T10:23:56.611Z,59.72
2019-01-21T10:24:56.632Z,60.77
2019-01-21T10:25:56.616Z,61.71
2019-01-21T10:26:56.579Z,61.13
2019-01-21T10:27:56.581Z,62.60
2019-01-21T10:28:56.558Z,62.43
2019-01-21T10:29:56.604Z,61.18
2019-01-21T10:30:56.560Z,60.42
2019-01-21T10:31:59.490Z,61.54
2019-01-21T10:32:56.513Z,59.56
2019-01-21T10:33:56.517Z,60.92
2019-01-21T10:34:56.496Z,59.59
2019-01-21T10:35:56.529Z,60.58
2019-01-21T10:36:56.504Z,59.41
2019-01-21T10:37:56.466Z,58.37
2019-01-21T10:38:56.480Z,59.77
2019-01-21T10:39:56.449Z,59.59
2019-01-21T10:40:56.429Z,59.17
2019-01-21T10:41:56.535Z,60.53
2019-01-21T10:42:56.468Z,59.59
2019-01-21T10:43:56.647Z,59.80
2019-01-21T10:44:56.426Z,60.82
2019-01-21T10:45:56.406Z,60.16
2019-01-21T10:46:56.385Z,59.20
2019-01-21T10:47:56.349Z,59.41
2019-01-21T10:48:56.338Z,58.97
2019-01-21T10:49:57.513Z,59.17
2019-01-21T10:50:56.316Z,58.54
2019-01-21T10:51:56.326Z,57.40
2019-01-21T10:52:56.296Z,58.54
2019-01-21T10:53:56.286Z,57.92
2019-01-21T10:54:56.268Z,57.71
2019-01-21T10:55:56.369Z,58.44
2019-01-21T10:56:56.369Z,58.42
2019-01-21T10:57:56.239Z,58.57
2019-01-21T10:58:56.233Z,57.30
2019-01-21T10:59:56.214Z,57.51
2019-01-21T11:00:56.208Z,57.61
2019-01-21T11:01:56.220Z,56.70
2019-01-21T11:02:56.192Z,57.32
2019-01-21T11:03:56.176Z,55.46
2019-01-21T11:04:56.176Z,57.24
2019-01-21T11:05:56.150Z,58.26
2019-01-21T11:06:56.183Z,58.15
2019-01-21T11:07:56.127Z,57.40
2019-01-21T11:08:56.125Z,57.28
2019-01-21T11:09:56.127Z,55.82
2019-01-21T11:10:56.094Z,55.07
2019-01-21T11:11:56.091Z,57.32
2019-01-21T11:12:56.118Z,57.35
2019-01-21T11:13:56.064Z,55.58
2019-01-21T11:14:56.049Z,57.32
2019-01-21T11:15:56.081Z,56.68
2019-01-21T11:16:56.027Z,54.89
2019-01-21T11:17:56.040Z,56.18
2019-01-21T11:18:56.012Z,53.72
2019-01-21T11:19:56.000Z,53.92
2019-01-21T11:20:55.983Z,54.34
2019-01-21T11:21:55.988Z,55.58
2019-01-21T11:22:55.984Z,53.33
2019-01-21T11:23:55.954Z,54.63
2019-01-21T11:24:55.955Z,56.78
2019-01-21T11:25:55.946Z,58.21
2019-01-21T11:26:55.949Z,58.78
2019-01-21T11:27:55.955Z,57.09
2019-01-21T11:28:55.948Z,55.98
2019-01-21T11:29:55.908Z,55.04
2019-01-21T11:30:55.891Z,53.61
2019-01-21T11:31:55.862Z,54.83
2019-01-21T11:32:55.884Z,55.22
2019-01-21T11:33:55.892Z,54.34
2019-01-21T11:34:55.848Z,55.02
2019-01-21T11:35:55.883Z,56.05
2019-01-21T11:36:55.806Z,56.24
2019-01-21T11:37:55.797Z,55.17
2019-01-21T11:38:55.820Z,54.58
2019-01-21T11:39:55.803Z,55.58
2019-01-21T11:40:55.789Z,56.49
2019-01-21T11:41:55.772Z,55.12
2019-01-21T11:42:55.750Z,57.38
2019-01-21T11:43:55.757Z,55.27
2019-01-21T11:44:55.730Z,53.30
2019-01-21T11:45:55.719Z,54.47
2019-01-21T11:46:55.702Z,55.66
2019-01-21T11:47:55.687Z,54.39
2019-01-21T11:48:55.752Z,54.37
2019-01-21T11:49:55.666Z,54.43
2019-01-21T11:50:55.658Z,50.60
2019-01-21T11:51:55.662Z,51.54
2019-01-21T11:52:55.656Z,53.38
2019-01-21T11:53:55.624Z,57.04
2019-01-21T11:54:55.658Z,56.62
2019-01-21T11:55:55.639Z,57.82
2019-01-21T11:56:55.603Z,57.45
2019-01-21T11:57:55.598Z,55.22
2019-01-21T11:58:55.610Z,54.89
2019-01-21T11:59:55.593Z,54.01
2019-01-21T12:00:55.562Z,52.33
2019-01-21T12:01:55.552Z,52.41
2019-01-21T12:02:55.545Z,51.32
2019-01-21T12:03:55.537Z,52.23
2019-01-21T12:04:55.533Z,52.31
2019-01-21T12:05:55.535Z,53.00
2019-01-21T12:06:55.521Z,50.65
2019-01-21T12:07:55.470Z,49.85
2019-01-21T12:08:55.469Z,52.17
2019-01-21T12:09:55.484Z,54.45
2019-01-21T12:10:55.448Z,53.41
2019-01-21T12:11:55.445Z,52.38
2019-01-21T12:12:55.417Z,51.89
2019-01-21T12:13:55.409Z,52.97
2019-01-21T12:14:55.400Z,53.28
2019-01-21T12:15:55.416Z,52.76
2019-01-21T12:16:55.376Z,55.30
2019-01-21T12:17:56.173Z,55.58
2019-01-21T12:18:55.353Z,55.35
2019-01-21T12:19:55.342Z,54.99
2019-01-21T12:20:55.367Z,54.03
2019-01-21T12:21:55.340Z,53.00
2019-01-21T12:22:55.311Z,52.67
2019-01-21T12:23:55.302Z,52.33
2019-01-21T12:24:55.310Z,50.86
2019-01-21T12:25:55.305Z,50.40
2019-01-21T12:26:55.288Z,50.20
2019-01-21T12:27:55.274Z,50.48
2019-01-21T12:28:55.250Z,50.71
2019-01-21T12:29:55.234Z,50.27
2019-01-21T12:30:55.220Z,48.33
2019-01-21T12:31:55.239Z,48.36
2019-01-21T12:32:55.197Z,50.78
2019-01-21T12:33:55.199Z,49.95
2019-01-21T12:34:55.179Z,50.13
2019-01-21T12:35:55.163Z,50.42
2019-01-21T12:36:55.182Z,50.63
2019-01-21T12:37:55.187Z,50.84
2019-01-21T12:38:55.153Z,50.50
2019-01-21T12:39:55.123Z,51.10
2019-01-21T12:40:55.127Z,50.64
2019-01-21T12:41:55.134Z,49.48
2019-01-21T12:42:55.096Z,47.42
2019-01-21T12:43:55.103Z,48.68
2019-01-21T12:44:55.069Z,48.06
2019-01-21T12:45:55.197Z,47.56
2019-01-21T12:46:55.079Z,47.44
2019-01-21T12:47:55.048Z,47.85
2019-01-21T12:48:55.039Z,46.82
2019-01-21T12:49:55.017Z,47.88
2019-01-21T12:50:55.050Z,47.28
2019-01-21T12:51:55.042Z,48.46